Time;durP1;ratioP1;P1;durP2;ratioP2;P2;SDS_P1;SDS_P2;PMS_P1;PMS_P2;Temp;Humidity;BMP_temperature;BMP_pressure;BME280_temperature;BME280_humidity;BME280_pressure;Samples;Min_cycle;Max_cycle;Signal;HPM_P1;HPM_P2
2022/06/12 00:00:00;;;;;;;;;;;15.70;99.90;;;;;;5057975;28;20112;-62
2022/06/12 00:02:26;;;;;;;5.25;2.05;;;15.60;99.90;;;;;;5080659;28;19924;-62
2022/06/12 00:04:52;;;;;;;;;;;15.60;99.90;;;;;;5083832;28;20052;-62
2022/06/12 00:07:17;;;;;;;7.35;1.90;;;15.60;99.90;;;;;;5101198;28;19924;-63
2022/06/12 00:09:43;;;;;;;;;;;15.60;99.90;;;;;;5093186;28;20488;-61
2022/06/12 00:12:09;;;;;;;5.18;1.88;;;15.50;99.90;;;;;;5088631;28;20026;-61
2022/06/12 00:14:35;;;;;;;5.43;2.50;;;15.60;99.90;;;;;;5093173;28;20040;-61
2022/06/12 00:17:01;;;;;;;;;;;15.50;99.90;;;;;;5100316;28;20117;-62
2022/06/12 00:19:28;;;;;;;5.00;1.90;;;15.40;99.90;;;;;;5082685;28;20284;-63
2022/06/12 00:21:54;;;;;;;3.90;1.88;;;15.40;99.90;;;;;;5068628;28;20052;-62
2022/06/12 00:24:20;;;;;;;;;;;15.40;99.90;;;;;;5074577;28;20563;-62
2022/06/12 00:26:49;;;;;;;5.07;1.80;;;15.30;99.90;;;;;;5089243;28;19920;-61
2022/06/12 00:29:23;;;;;;;4.07;1.80;;;15.30;99.90;;;;;;5084894;28;20461;-63
2022/06/12 00:31:54;;;;;;;6.55;2.15;;;15.20;99.90;;;;;;5078741;28;20082;-63
2022/06/12 00:34:23;;;;;;;5.10;2.03;;;15.20;99.90;;;;;;5085313;28;20066;-61
2022/06/12 00:36:49;;;;;;;4.00;1.60;;;15.20;99.90;;;;;;5069139;28;20103;-61
2022/06/12 00:39:16;;;;;;;;;;;15.20;99.90;;;;;;5070027;28;20074;-61
2022/06/12 00:41:43;;;;;;;4.57;2.13;;;15.10;99.90;;;;;;5079884;28;19916;-62
2022/06/12 00:44:16;;;;;;;6.80;1.85;;;15.00;99.90;;;;;;5074915;28;20131;-63
2022/06/12 00:46:57;;;;;;;4.22;1.75;;;15.00;99.90;;;;;;5088754;28;20040;-61
2022/06/12 00:49:27;;;;;;;13.27;2.38;;;15.00;99.90;;;;;;5087411;28;20048;-62
2022/06/12 00:51:58;;;;;;;4.80;2.28;;;15.00;99.90;;;;;;5068439;28;20101;-63
2022/06/12 00:54:24;;;;;;;6.90;2.20;;;15.00;99.90;;;;;;5069760;28;20740;-62
2022/06/12 00:56:54;;;;;;;6.30;2.72;;;15.00;99.90;;;;;;5067618;28;20044;-62
2022/06/12 00:59:45;;;;;;;4.75;2.13;;;14.90;99.90;;;;;;5068030;28;20063;-62
2022/06/12 01:02:26;;;;;;;4.82;1.80;;;14.80;99.90;;;;;;5062307;28;20784;-63
2022/06/12 01:07:41;;;;;;;4.97;1.90;;;14.80;99.90;;;;;;5071703;28;20036;-62
2022/06/12 01:10:10;;;;;;;3.15;1.73;;;14.80;99.90;;;;;;5076562;28;20032;-62
2022/06/12 01:12:51;;;;;;;5.40;2.03;;;14.80;99.90;;;;;;5075886;28;20040;-62
2022/06/12 01:15:28;;;;;;;7.72;2.20;;;14.70;99.90;;;;;;5073515;28;20035;-62
2022/06/12 01:17:56;;;;;;;5.80;1.92;;;14.60;99.90;;;;;;5087649;28;20520;-62
2022/06/12 01:20:27;;;;;;;4.72;2.08;;;14.60;99.90;;;;;;5081314;28;20125;-60
2022/06/12 01:23:21;;;;;;;4.35;2.20;;;14.50;99.90;;;;;;5067654;28;20048;-63
2022/06/12 01:26:05;;;;;;;7.15;2.35;;;14.50;99.90;;;;;;5075407;28;20582;-61
2022/06/12 01:28:44;;;;;;;5.63;1.98;;;14.40;99.90;;;;;;5087104;28;20444;-62
2022/06/12 01:31:54;;;;;;;4.68;2.40;;;14.40;99.90;;;;;;5075665;28;20036;-63
2022/06/12 01:34:45;;;;;;;6.25;4.25;;;14.30;99.90;;;;;;5067469;28;20394;-62
2022/06/12 01:37:32;;;;;;;5.82;2.30;;;14.30;99.90;;;;;;5078059;28;20150;-62
2022/06/12 01:40:12;;;;;;;7.20;1.90;;;14.30;99.90;;;;;;5084315;28;20067;-62
2022/06/12 01:42:59;;;;;;;6.95;2.60;;;14.30;99.90;;;;;;5077286;28;20123;-63
2022/06/12 01:45:39;;;;;;;8.07;2.55;;;14.20;99.90;;;;;;5084720;28;20050;-61
2022/06/12 01:48:30;;;;;;;3.70;2.58;;;14.20;99.90;;;;;;5067478;28;20083;-61
2022/06/12 01:51:13;;;;;;;6.18;2.22;;;14.20;99.90;;;;;;5072805;28;20064;-62
2022/06/12 01:53:56;;;;;;;4.40;2.20;;;14.20;99.90;;;;;;5086866;28;20048;-62
2022/06/12 01:56:41;;;;;;;5.05;2.40;;;14.20;99.90;;;;;;5081571;28;20423;-62
2022/06/12 01:59:29;;;;;;;3.55;1.92;;;14.00;99.90;;;;;;5087342;28;20067;-60
2022/06/12 02:02:03;;;;;;;7.80;2.25;;;14.10;99.90;;;;;;5072568;28;20071;-62
2022/06/12 02:04:44;;;;;;;7.90;2.97;;;14.10;99.90;;;;;;5077030;28;20036;-62
2022/06/12 02:07:15;;;;;;;6.45;2.85;;;14.00;99.90;;;;;;5072473;28;20056;-62
2022/06/12 02:09:46;;;;;;;5.18;2.20;;;14.00;99.90;;;;;;5066447;28;20128;-62
2022/06/12 02:15:17;;;;;;;15.57;4.38;;;14.00;99.90;;;;;;5024095;28;20048;-62
2022/06/12 02:17:51;;;;;;;5.93;2.80;;;13.90;99.90;;;;;;5084009;28;20042;-61
2022/06/12 02:20:21;;;;;;;5.72;2.30;;;13.90;99.90;;;;;;5086911;28;20127;-62
2022/06/12 02:22:49;;;;;;;5.05;2.25;;;13.90;99.90;;;;;;5086743;28;20040;-62
2022/06/12 02:25:23;;;;;;;6.63;2.45;;;13.90;99.90;;;;;;5087027;28;20046;-62
2022/06/12 02:27:58;;;;;;;5.80;2.33;;;13.80;99.90;;;;;;5069487;28;20562;-61
2022/06/12 02:30:27;;;;;;;9.40;2.67;;;13.80;99.90;;;;;;5075544;28;20086;-61
2022/06/12 02:32:57;;;;;;;4.85;2.45;;;13.80;99.90;;;;;;5083797;28;20504;-59
2022/06/12 02:35:47;;;;;;;5.40;2.40;;;13.80;99.90;;;;;;5075063;28;20048;-62
2022/06/12 02:38:27;;;;;;;4.25;1.92;;;13.80;99.90;;;;;;5086071;28;20048;-61
2022/06/12 02:41:02;;;;;;;8.25;2.55;;;13.80;99.90;;;;;;5078680;28;20703;-61
2022/06/12 02:43:30;;;;;;;7.63;2.67;;;13.70;99.90;;;;;;5083183;28;20085;-61
2022/06/12 02:46:05;;;;;;;6.32;2.42;;;13.70;99.90;;;;;;5085367;28;20044;-62
2022/06/12 02:48:32;;;;;;;5.78;2.20;;;13.70;99.90;;;;;;5066359;28;20047;-62
2022/06/12 02:51:17;;;;;;;5.45;2.13;;;13.70;99.90;;;;;;5065952;28;20137;-63
2022/06/12 02:53:58;;;;;;;5.43;2.15;;;13.70;99.90;;;;;;5066806;28;20478;-60
2022/06/12 02:56:42;;;;;;;7.50;2.50;;;13.60;99.90;;;;;;5079475;28;20051;-61
2022/06/12 02:59:14;;;;;;;7.28;2.35;;;13.60;99.90;;;;;;5066593;28;20128;-63
2022/06/12 03:01:50;;;;;;;5.00;2.70;;;13.60;99.90;;;;;;5066132;28;20138;-62
2022/06/12 03:04:25;;;;;;;5.05;2.40;;;13.50;99.90;;;;;;5088119;28;20067;-62
2022/06/12 03:06:51;;;;;;;9.90;3.50;;;13.50;99.90;;;;;;5094552;28;20055;-63
2022/06/12 03:09:16;;;;;;;;;;;13.50;99.90;;;;;;5078887;28;20093;-62
2022/06/12 03:11:44;;;;;;;7.57;2.63;;;13.50;99.90;;;;;;5067177;28;19920;-62
2022/06/12 03:14:13;;;;;;;10.35;2.88;;;13.40;99.90;;;;;;5080313;28;20118;-62
2022/06/12 03:16:41;;;;;;;6.95;2.58;;;13.40;99.90;;;;;;5086299;28;20036;-60
2022/06/12 03:19:14;;;;;;;19.30;3.13;;;13.40;99.90;;;;;;5087924;28;20036;-60
2022/06/12 03:21:49;;;;;;;6.70;2.40;;;13.30;99.90;;;;;;5087828;28;20044;-60
2022/06/12 03:24:39;;;;;;;6.55;2.53;;;13.30;99.90;;;;;;5087861;28;20036;-60
2022/06/12 03:27:04;;;;;;;10.68;2.67;;;13.20;99.90;;;;;;5085278;28;20056;-62
2022/06/12 03:29:33;;;;;;;;;;;13.30;99.90;;;;;;5068250;28;20424;-61
2022/06/12 03:32:21;;;;;;;11.02;2.70;;;13.30;99.90;;;;;;5067583;28;19924;-61
2022/06/12 03:34:55;;;;;;;8.73;2.70;;;13.20;99.90;;;;;;5081603;28;20040;-61
2022/06/12 03:37:37;;;;;;;7.30;2.08;;;13.20;99.90;;;;;;5070972;28;20051;-61
2022/06/12 03:40:10;;;;;;;5.72;2.35;;;13.50;99.90;;;;;;5087395;28;20055;-61
2022/06/12 03:42:44;;;;;;;7.88;2.85;;;13.50;99.90;;;;;;5087793;28;20094;-60
2022/06/12 03:45:21;;;;;;;6.88;2.65;;;13.60;99.90;;;;;;5087209;28;20044;-60
2022/06/12 03:48:09;;;;;;;7.70;2.83;;;13.70;99.90;;;;;;5081700;28;20072;-61
2022/06/12 03:50:50;;;;;;;5.65;2.10;;;13.90;99.90;;;;;;5067367;28;20045;-59
2022/06/12 03:53:22;;;;;;;9.23;2.45;;;14.30;99.90;;;;;;5069872;28;20041;-60
2022/06/12 03:59:12;;;;;;;5.80;2.17;;;14.00;99.90;;;;;;5084998;28;20040;-60
2022/06/12 04:01:40;;;;;;;9.05;2.75;;;14.00;99.90;;;;;;5083402;28;20094;-62
2022/06/12 04:04:06;;;;;;;7.05;2.47;;;14.00;99.90;;;;;;5079195;28;20397;-62
2022/06/12 04:06:33;;;;;;;8.00;2.70;;;14.00;99.90;;;;;;5077444;28;20718;-62
2022/06/12 04:09:09;;;;;;;7.70;2.30;;;14.10;99.90;;;;;;5073783;28;20040;-62
2022/06/12 04:11:38;;;;;;;5.78;2.20;;;14.20;99.90;;;;;;5075369;28;20082;-62
2022/06/12 04:14:06;;;;;;;5.65;2.67;;;14.30;99.90;;;;;;5079889;28;20669;-60
2022/06/12 04:16:46;;;;;;;9.57;2.53;;;14.20;99.90;;;;;;5075278;28;20408;-59
2022/06/12 04:19:18;;;;;;;6.88;2.22;;;14.20;99.90;;;;;;5080051;28;20040;-60
2022/06/12 04:22:22;;;;;;;9.82;2.13;;;14.30;99.90;;;;;;5086556;28;20040;-58
2022/06/12 04:24:54;;;;;;;8.10;2.35;;;14.40;99.90;;;;;;5086423;28;20039;-60
2022/06/12 04:27:34;;;;;;;6.80;2.22;;;14.50;99.90;;;;;;5075082;28;20037;-59
2022/06/12 04:30:14;;;;;;;6.05;2.17;;;14.60;99.90;;;;;;5083417;28;20061;-57
2022/06/12 04:32:40;;;;;;;6.88;2.33;;;15.20;99.90;;;;;;5086682;28;20147;-60
2022/06/12 04:35:06;;;;;;;;;;;15.60;99.90;;;;;;5084318;28;20567;-60
2022/06/12 04:37:35;;;;;;;8.75;2.10;;;15.90;99.90;;;;;;5083288;28;19932;-60
2022/06/12 04:40:05;;;;;;;8.52;2.90;;;16.00;99.90;;;;;;5078156;28;20040;-60
2022/06/12 04:42:32;;;;;;;6.30;2.17;;;15.80;99.90;;;;;;5080405;28;20036;-60
2022/06/12 04:45:00;;;;;;;8.52;2.22;;;15.60;99.90;;;;;;5084130;28;20115;-57
2022/06/12 04:47:31;;;;;;;12.13;2.65;;;15.50;99.90;;;;;;5078727;28;20044;-61
2022/06/12 04:50:16;;;;;;;15.18;2.80;;;15.50;99.90;;;;;;5082692;28;20795;-56
2022/06/12 04:52:42;;;;;;;7.70;2.45;;;15.50;99.90;;;;;;5078823;28;20032;-60
2022/06/12 04:55:09;;;;;;;;;;;15.60;99.90;;;;;;5076580;28;20500;-60
2022/06/12 04:57:38;;;;;;;8.32;2.08;;;16.00;99.90;;;;;;5077384;28;20428;-60
2022/06/12 05:00:05;;;;;;;12.13;2.83;;;15.90;99.90;;;;;;5077320;28;20037;-59
2022/06/12 05:02:33;;;;;;;5.40;2.05;;;15.70;99.90;;;;;;5078228;28;20055;-59
2022/06/12 05:05:01;;;;;;;6.90;2.47;;;15.60;99.90;;;;;;5078371;28;20473;-59
2022/06/12 05:07:30;;;;;;;14.07;2.20;;;15.60;99.90;;;;;;5089249;28;20040;-62
2022/06/12 05:09:59;;;;;;;10.80;2.90;;;15.60;99.90;;;;;;5090375;28;20138;-60
2022/06/12 05:12:26;;;;;;;8.27;2.47;;;15.60;99.90;;;;;;5085629;28;20044;-60
2022/06/12 05:14:56;;;;;;;8.65;2.45;;;15.60;99.90;;;;;;5079987;28;20036;-60
2022/06/12 05:17:22;;;;;;;5.75;2.58;;;15.60;99.90;;;;;;5089486;28;20744;-60
2022/06/12 05:19:49;;;;;;;4.15;2.13;;;15.70;99.90;;;;;;5089812;28;20052;-60
2022/06/12 05:22:22;;;;;;;4.75;1.80;;;15.70;99.90;;;;;;5089791;28;20044;-61
2022/06/12 05:24:48;;;;;;;7.50;2.30;;;15.80;99.90;;;;;;5080975;28;20093;-61
2022/06/12 05:27:20;;;;;;;5.57;2.45;;;15.90;99.90;;;;;;5082987;28;20040;-62
2022/06/12 05:29:47;;;;;;;5.90;2.10;;;16.30;99.90;;;;;;5088479;28;20040;-64
2022/06/12 05:32:18;;;;;;;11.52;2.33;;;16.90;99.90;;;;;;5091039;28;20150;-61
2022/06/12 05:34:45;;;;;;;7.97;2.00;;;18.30;99.90;;;;;;5097880;28;20043;-62
2022/06/12 05:37:15;;;;;;;4.47;2.00;;;18.70;98.70;;;;;;5080404;28;20123;-61
2022/06/12 05:39:44;;;;;;;5.30;1.85;;;18.60;99.60;;;;;;5083389;28;20044;-61
2022/06/12 05:42:11;;;;;;;9.05;2.03;;;18.50;99.70;;;;;;5068131;28;20106;-63
2022/06/12 05:44:40;;;;;;;6.82;2.33;;;18.90;98.50;;;;;;5068487;28;20045;-62
2022/06/12 05:47:07;;;;;;;5.05;2.00;;;19.00;98.80;;;;;;5068433;28;20790;-60
2022/06/12 05:49:33;;;;;;;6.60;2.40;;;18.70;98.80;;;;;;5068867;28;20412;-62
2022/06/12 05:51:59;;;;;;;;;;;18.40;99.10;;;;;;5068797;28;20040;-63
2022/06/12 05:54:25;;;;;;;6.43;1.75;;;18.30;99.00;;;;;;5069602;28;19917;-63
2022/06/12 05:56:57;;;;;;;7.78;1.98;;;18.00;99.50;;;;;;5069831;28;20045;-63
2022/06/12 05:59:25;;;;;;;10.55;1.92;;;18.00;99.00;;;;;;5076546;28;20110;-62
2022/06/12 06:01:51;;;;;;;;;;;17.90;97.30;;;;;;5079392;28;20551;-62
2022/06/12 06:04:20;;;;;;;4.60;1.90;;;17.90;97.10;;;;;;5089245;28;20053;-62
2022/06/12 06:06:51;;;;;;;12.77;2.47;;;17.80;98.10;;;;;;5068950;28;20097;-63
2022/06/12 06:09:18;;;;;;;10.65;2.15;;;17.80;97.10;;;;;;5069409;28;20041;-62
2022/06/12 06:11:50;;;;;;;9.82;2.00;;;17.80;96.90;;;;;;5067557;28;20040;-62
2022/06/12 06:14:19;;;;;;;8.70;2.05;;;17.90;95.90;;;;;;5069133;28;20409;-63
2022/06/12 06:16:45;;;;;;;;;;;18.50;96.50;;;;;;5068487;28;20057;-62
2022/06/12 06:19:20;;;;;;;9.27;1.97;;;19.50;93.20;;;;;;5068116;28;19994;-62
2022/06/12 06:21:47;;;;;;;9.00;2.17;;;20.30;92.60;;;;;;5085309;28;20364;-61
2022/06/12 06:24:12;;;;;;;9.48;1.90;;;20.00;90.90;;;;;;5099786;28;20117;-61
2022/06/12 06:26:39;;;;;;;;;;;19.60;91.00;;;;;;5105560;28;20104;-60
2022/06/12 06:29:05;;;;;;;7.85;2.45;;;19.20;90.60;;;;;;5099259;28;19915;-60
2022/06/12 06:31:31;;;;;;;8.27;1.88;;;18.80;92.20;;;;;;5094834;28;20047;-60
2022/06/12 06:34:00;;;;;;;9.70;2.17;;;19.20;92.10;;;;;;5092727;28;20071;-61
2022/06/12 06:36:32;;;;;;;11.65;2.33;;;19.60;90.90;;;;;;5070872;28;20051;-60
2022/06/12 06:38:58;;;;;;;7.35;2.38;;;19.50;90.70;;;;;;5067073;28;20028;-61
2022/06/12 06:41:28;;;;;;;14.13;2.08;;;19.30;90.80;;;;;;5066998;28;20412;-60
2022/06/12 06:46:41;;;;;;;9.77;2.53;;;19.20;92.00;;;;;;5080319;28;20087;-60
2022/06/12 06:49:08;;;;;;;10.82;2.05;;;19.30;92.50;;;;;;5088278;28;20119;-60
2022/06/12 06:51:36;;;;;;;9.52;2.20;;;19.90;91.70;;;;;;5075546;28;20575;-62
2022/06/12 06:54:05;;;;;;;12.88;3.08;;;20.00;90.70;;;;;;5067163;28;20048;-61
2022/06/12 06:56:37;;;;;;;13.38;2.90;;;19.90;91.00;;;;;;5067509;28;20131;-61
2022/06/12 06:59:06;;;;;;;10.80;2.67;;;19.50;91.70;;;;;;5072757;28;20032;-61
2022/06/12 07:01:36;;;;;;;8.50;2.22;;;19.40;92.00;;;;;;5085711;28;20051;-60
2022/06/12 07:04:05;;;;;;;8.88;2.42;;;19.30;91.80;;;;;;5085831;28;20040;-60
2022/06/12 07:06:34;;;;;;;7.43;1.95;;;19.10;92.30;;;;;;5087627;28;20056;-60
2022/06/12 07:09:00;;;;;;;7.22;1.60;;;19.10;92.00;;;;;;5087937;28;20040;-60
2022/06/12 07:11:26;;;;;;;10.20;2.15;;;19.30;91.80;;;;;;5095610;28;20040;-62
2022/06/12 07:13:56;;;;;;;7.75;1.80;;;19.30;92.00;;;;;;5105418;28;20484;-60
2022/06/12 07:16:27;;;;;;;7.95;2.20;;;19.50;92.10;;;;;;5089432;28;20118;-61
2022/06/12 07:19:00;;;;;;;10.30;1.85;;;19.90;89.30;;;;;;5084351;28;20070;-60
2022/06/12 07:21:29;;;;;;;10.75;2.40;;;20.30;88.60;;;;;;5069468;28;20115;-60
2022/06/12 07:23:57;;;;;;;7.85;2.50;;;20.20;87.70;;;;;;5078083;28;20040;-61
2022/06/12 07:26:41;;;;;;;9.63;1.73;;;20.10;89.40;;;;;;5077885;28;20127;-61
2022/06/12 07:29:10;;;;;;;7.18;1.70;;;20.10;90.40;;;;;;5080015;28;20035;-59
2022/06/12 07:31:37;;;;;;;11.45;2.50;;;20.00;90.70;;;;;;5078230;28;20075;-61
2022/06/12 07:34:03;;;;;;;4.72;2.13;;;19.90;91.60;;;;;;5080850;28;20040;-62
2022/06/12 07:36:29;;;;;;;13.38;2.00;;;19.90;91.50;;;;;;5085895;28;20040;-61
2022/06/12 07:38:55;;;;;;;4.60;1.48;;;20.00;91.20;;;;;;5078353;28;20051;-62
2022/06/12 07:41:21;;;;;;;6.55;1.30;;;20.10;90.60;;;;;;5078079;28;20028;-61
2022/06/12 07:43:48;;;;;;;6.32;1.48;;;20.00;88.60;;;;;;5090145;28;20040;-61
2022/06/12 07:46:16;;;;;;;6.60;1.90;;;19.80;90.10;;;;;;5088536;28;20044;-63
2022/06/12 07:48:45;;;;;;;5.75;1.67;;;20.10;85.80;;;;;;5070285;28;20040;-62
2022/06/12 07:51:15;;;;;;;4.78;1.60;;;20.10;87.40;;;;;;5071020;28;20044;-62
2022/06/12 07:53:41;;;;;;;4.22;1.52;;;20.30;84.80;;;;;;5088734;28;20036;-62
2022/06/12 07:56:08;;;;;;;9.40;2.17;;;20.40;81.20;;;;;;5078127;28;20511;-61
2022/06/12 07:58:35;;;;;;;9.23;2.28;;;20.30;89.00;;;;;;5086969;28;20060;-62
2022/06/12 08:01:04;;;;;;;6.63;2.25;;;20.20;90.90;;;;;;5083825;28;20125;-62
2022/06/12 08:03:31;;;;;;;12.55;2.50;;;20.40;88.90;;;;;;5088803;28;20069;-62
2022/06/12 08:05:57;;;;;;;5.13;1.58;;;20.90;89.60;;;;;;5089897;28;20047;-62
2022/06/12 08:08:23;;;;;;;6.97;1.75;;;21.60;86.80;;;;;;5074350;28;20080;-62
2022/06/12 08:10:49;;;;;;;6.18;1.73;;;22.40;82.80;;;;;;5068913;28;20060;-62
2022/06/12 08:13:16;;;;;;;5.68;1.60;;;22.90;79.20;;;;;;5094511;28;20503;-61
2022/06/12 08:15:45;;;;;;;6.93;1.90;;;22.80;78.30;;;;;;5090763;28;20039;-61
2022/06/12 08:18:12;;;;;;;4.90;1.55;;;22.80;74.90;;;;;;5077000;28;20550;-62
2022/06/12 08:20:43;;;;;;;9.23;2.55;;;23.00;78.20;;;;;;5093530;28;20036;-62
2022/06/12 08:23:26;;;;;;;3.17;1.58;;;22.20;76.00;;;;;;5092053;28;20208;-62
2022/06/12 08:25:55;;;;;;;6.57;1.95;;;22.20;80.80;;;;;;5089982;28;20082;-62
2022/06/12 08:28:22;;;;;;;9.48;1.70;;;22.80;76.50;;;;;;5076550;28;20166;-62
2022/06/12 08:30:48;;;;;;;4.07;1.48;;;23.10;79.00;;;;;;5084442;28;20117;-62
2022/06/12 08:33:14;;;;;;;8.07;1.65;;;22.80;76.90;;;;;;5088724;28;20132;-62
2022/06/12 08:35:40;;;;;;;6.80;1.83;;;22.50;77.40;;;;;;5092514;28;20131;-61
2022/06/12 08:38:06;;;;;;;10.70;2.85;;;22.70;77.20;;;;;;5099149;28;20035;-62
2022/06/12 08:40:49;;;;;;;7.25;1.90;;;24.10;75.00;;;;;;5089886;28;20783;-61
2022/06/12 08:43:31;;;;;;;5.68;1.75;;;25.30;71.80;;;;;;5095016;28;20024;-62
2022/06/12 08:46:05;;;;;;;9.63;2.17;;;25.90;66.90;;;;;;5088053;28;20047;-61
2022/06/12 08:48:39;;;;;;;3.88;1.90;;;26.10;65.00;;;;;;5077730;28;20126;-62
2022/06/12 08:51:27;;;;;;;6.72;1.83;;;25.80;68.30;;;;;;5077360;28;20040;-62
2022/06/12 08:54:09;;;;;;;6.50;2.00;;;25.60;66.30;;;;;;5078053;28;20085;-62
2022/06/12 08:56:46;;;;;;;5.72;1.90;;;24.20;69.90;;;;;;5080896;28;20078;-61
2022/06/12 08:59:34;;;;;;;6.30;1.60;;;23.70;73.50;;;;;;5079174;28;20028;-62
2022/06/12 09:02:05;;;;;;;6.95;1.83;;;23.50;74.40;;;;;;5072218;28;20055;-62
2022/06/12 09:04:35;;;;;;;9.73;2.03;;;23.10;72.10;;;;;;5080876;28;20040;-61
2022/06/12 09:07:18;;;;;;;6.25;1.38;;;22.80;74.30;;;;;;5088909;28;20123;-61
2022/06/12 09:10:30;;;;;;;3.38;1.45;;;22.40;77.80;;;;;;5070586;28;20120;-62
2022/06/12 09:13:27;;;;;;;5.95;1.90;;;22.30;79.20;;;;;;5054690;28;20044;-62
2022/06/12 09:16:17;;;;;;;7.35;2.15;;;21.60;78.60;;;;;;5087229;28;20048;-60
2022/06/12 09:19:24;;;;;;;6.65;1.70;;;21.60;79.20;;;;;;5079190;28;20146;-62
2022/06/12 09:22:01;;;;;;;6.65;1.98;;;21.90;80.90;;;;;;5036660;28;20044;-62
2022/06/12 09:24:42;;;;;;;5.50;2.00;;;21.80;78.10;;;;;;5068596;28;20072;-61
2022/06/12 09:27:30;;;;;;;5.32;1.80;;;21.60;82.90;;;;;;5068893;28;20047;-61
2022/06/12 09:30:05;;;;;;;5.18;1.75;;;21.70;78.30;;;;;;5079884;28;20412;-62
2022/06/12 09:32:55;;;;;;;4.07;1.73;;;21.90;77.70;;;;;;5085477;28;20035;-62
2022/06/12 09:35:52;;;;;;;7.90;2.00;;;21.80;76.80;;;;;;5069051;28;20041;-62
2022/06/12 09:38:30;;;;;;;;;;;21.80;77.10;;;;;;5072501;28;20051;-62
2022/06/12 09:41:02;;;;;;;3.25;1.25;;;21.90;77.00;;;;;;5088601;28;20403;-62
2022/06/12 09:43:40;;;;;;;2.50;1.33;;;22.10;75.90;;;;;;5089055;28;20051;-61
2022/06/12 09:46:20;;;;;;;6.38;1.60;;;22.10;74.20;;;;;;5088625;28;20056;-62
2022/06/12 09:49:23;;;;;;;4.68;1.27;;;22.40;78.60;;;;;;5083197;28;20131;-62
2022/06/12 09:51:55;;;;;;;8.90;1.90;;;22.50;74.20;;;;;;5067136;28;20101;-62
2022/06/12 09:54:41;;;;;;;6.88;2.03;;;21.90;78.30;;;;;;5077628;28;20605;-61
2022/06/12 09:57:24;;;;;;;4.57;1.40;;;21.80;80.30;;;;;;5068167;28;20041;-62
2022/06/12 09:59:59;;;;;;;5.82;1.65;;;21.60;80.60;;;;;;5069214;28;20039;-61
2022/06/12 10:02:33;;;;;;;10.10;2.53;;;21.50;80.10;;;;;;5083895;28;20055;-62
2022/06/12 10:05:26;;;;;;;7.50;1.73;;;21.30;84.10;;;;;;5088289;28;20453;-61
2022/06/12 10:08:16;;;;;;;5.70;1.50;;;21.50;82.50;;;;;;5081340;28;20082;-63
2022/06/12 10:11:08;;;;;;;5.63;1.88;;;21.70;75.00;;;;;;5099238;28;20052;-64
2022/06/12 10:13:58;;;;;;;7.13;1.75;;;21.90;77.10;;;;;;5091528;28;20227;-62
2022/06/12 10:16:33;;;;;;;6.97;1.48;;;22.20;74.70;;;;;;5092385;28;20080;-62
2022/06/12 10:19:28;;;;;;;6.57;2.03;;;22.30;74.80;;;;;;5085428;28;20040;-62
2022/06/12 10:21:58;;;;;;;4.45;1.83;;;22.50;74.00;;;;;;5073320;28;20051;-62
2022/06/12 10:24:24;;;;;;;4.97;1.50;;;22.50;73.80;;;;;;5084139;28;20044;-64
2022/06/12 10:26:57;;;;;;;6.10;1.55;;;22.40;74.10;;;;;;5094342;28;20044;-63
2022/06/12 10:29:24;;;;;;;4.70;1.77;;;22.50;74.90;;;;;;5080207;28;20047;-62
2022/06/12 10:32:04;;;;;;;4.03;1.73;;;22.60;71.80;;;;;;5081414;28;20124;-63
2022/06/12 10:34:32;;;;;;;7.18;2.42;;;22.30;72.90;;;;;;5094044;28;20189;-63
2022/06/12 10:37:39;;;;;;;5.25;1.52;;;22.10;77.60;;;;;;5086800;28;20040;-62
2022/06/12 10:40:26;;;;;;;6.75;1.95;;;22.20;76.50;;;;;;5077482;28;20071;-62
2022/06/12 10:43:21;;;;;;;7.10;1.80;;;22.20;78.20;;;;;;5091549;28;20100;-62
2022/06/12 10:45:57;;;;;;;7.85;1.52;;;22.10;78.10;;;;;;5073183;28;20279;-61
2022/06/12 10:48:29;;;;;;;;;;;22.00;77.40;;;;;;5067120;28;20120;-62
2022/06/12 10:51:00;;;;;;;5.40;2.00;;;21.90;77.50;;;;;;5082552;28;19916;-63
2022/06/12 10:53:31;;;;;;;3.42;1.30;;;22.00;77.70;;;;;;5087365;28;20569;-62
2022/06/12 10:56:20;;;;;;;5.50;1.63;;;22.10;80.90;;;;;;5072414;28;20094;-62
2022/06/12 10:59:04;;;;;;;6.65;1.65;;;22.00;79.50;;;;;;5056765;28;20653;-61
2022/06/12 11:01:48;;;;;;;7.05;1.63;;;22.20;77.80;;;;;;5076166;28;20060;-62
2022/06/12 11:04:35;;;;;;;7.38;1.90;;;22.10;74.90;;;;;;5074768;28;20119;-61
2022/06/12 11:07:19;;;;;;;6.72;1.98;;;22.10;76.20;;;;;;5067139;28;20109;-62
2022/06/12 11:09:56;;;;;;;6.43;2.03;;;22.20;77.20;;;;;;5069730;28;20102;-61
2022/06/12 11:13:02;;;;;;;6.00;1.73;;;22.30;74.60;;;;;;5079015;28;20037;-62
2022/06/12 11:15:49;;;;;;;5.68;2.03;;;22.30;76.80;;;;;;5077235;28;20128;-62
2022/06/12 11:18:24;;;;;;;5.13;1.73;;;22.40;79.20;;;;;;5080368;28;20051;-61
2022/06/12 11:20:58;;;;;;;5.13;1.65;;;22.40;78.30;;;;;;5093403;28;20058;-60
2022/06/12 11:23:42;;;;;;;7.95;2.47;;;22.60;80.50;;;;;;5101439;28;20044;-62
2022/06/12 11:26:34;;;;;;;5.13;1.50;;;22.50;76.10;;;;;;5083062;28;20040;-62
2022/06/12 11:29:46;;;;;;;4.47;1.40;;;22.30;78.00;;;;;;5073190;28;20651;-61
2022/06/12 11:32:31;;;;;;;6.20;1.70;;;22.40;77.10;;;;;;5087358;28;20028;-61
2022/06/12 11:35:09;;;;;;;8.23;2.13;;;22.50;79.50;;;;;;5067457;28;20090;-61
2022/06/12 11:37:59;;;;;;;7.10;1.60;;;22.40;75.00;;;;;;5086786;28;20435;-61
2022/06/12 11:40:43;;;;;;;4.88;1.55;;;22.40;79.20;;;;;;5082744;28;20036;-61
2022/06/12 11:43:20;;;;;;;7.68;2.30;;;22.50;69.30;;;;;;5087648;28;20040;-61
2022/06/12 11:46:04;;;;;;;4.05;1.42;;;22.50;72.40;;;;;;5099608;28;20067;-62
2022/06/12 11:48:36;;;;;;;7.18;1.77;;;22.40;76.50;;;;;;5087832;28;20044;-61
2022/06/12 11:51:17;;;;;;;4.72;1.73;;;22.50;73.60;;;;;;5090157;28;20080;-62
2022/06/12 11:53:43;;;;;;;7.70;1.70;;;22.40;74.60;;;;;;5085401;28;20040;-61
2022/06/12 11:56:38;;;;;;;8.57;1.55;;;22.40;75.60;;;;;;5075504;28;20593;-61
2022/06/12 11:59:25;;;;;;;3.72;1.25;;;22.40;75.90;;;;;;5077134;28;20032;-61
2022/06/12 12:02:04;;;;;;;5.40;1.88;;;22.50;74.30;;;;;;5069593;28;20037;-62
2022/06/12 12:04:52;;;;;;;5.20;1.48;;;22.20;75.00;;;;;;5093686;28;20055;-61
2022/06/12 12:07:52;;;;;;;4.78;1.90;;;22.40;75.10;;;;;;5068906;28;20401;-61
2022/06/12 12:10:46;;;;;;;5.63;1.45;;;22.40;69.40;;;;;;5066313;28;20065;-61
2022/06/12 12:13:23;;;;;;;3.95;1.13;;;22.50;68.50;;;;;;5064134;28;20627;-62
2022/06/12 12:15:56;;;;;;;5.90;1.80;;;22.70;74.50;;;;;;5086949;28;20032;-62
2022/06/12 12:18:43;;;;;;;3.83;1.40;;;22.70;72.00;;;;;;5095273;28;20035;-62
2022/06/12 12:21:21;;;;;;;8.57;1.70;;;22.70;69.40;;;;;;5083710;28;20056;-61
2022/06/12 12:23:48;;;;;;;5.25;1.70;;;22.30;71.40;;;;;;5097506;28;20035;-61
2022/06/12 12:26:23;;;;;;;5.43;1.30;;;22.30;71.00;;;;;;5084360;28;20044;-62
2022/06/12 12:28:58;;;;;;;5.85;1.83;;;22.10;73.50;;;;;;5094595;28;20082;-62
2022/06/12 12:31:26;;;;;;;6.32;1.52;;;22.10;75.30;;;;;;5074827;28;20045;-61
2022/06/12 12:33:54;;;;;;;7.53;1.60;;;22.40;74.80;;;;;;5069797;28;20068;-62
2022/06/12 12:42:25;;;;;;;6.65;1.52;;;23.20;71.50;;;;;;5079765;28;20041;-61
2022/06/12 12:44:51;;;;;;;5.65;1.50;;;22.80;68.10;;;;;;5069810;28;20477;-62
2022/06/12 12:47:26;;;;;;;3.85;1.63;;;22.40;71.70;;;;;;5072945;28;20044;-62
2022/06/12 12:50:22;;;;;;;5.32;1.38;;;22.70;75.00;;;;;;5082074;28;20504;-62
2022/06/12 12:52:55;;;;;;;6.90;2.33;;;22.90;73.60;;;;;;5072177;28;20419;-61
2022/06/12 12:55:40;;;;;;;5.72;1.50;;;23.30;72.40;;;;;;5083774;28;20104;-61
2022/06/12 12:58:18;;;;;;;6.40;1.85;;;23.00;71.00;;;;;;5085370;28;20047;-61
2022/06/12 13:00:45;;;;;;;6.53;1.85;;;22.90;73.40;;;;;;5079745;28;20044;-60
2022/06/12 13:03:23;;;;;;;9.93;2.33;;;22.80;71.70;;;;;;5072510;28;20051;-61
2022/06/12 13:05:49;;;;;;;7.55;2.03;;;22.90;73.20;;;;;;5069219;28;20040;-60
2022/06/12 13:08:26;;;;;;;5.40;1.95;;;23.10;71.50;;;;;;5085166;28;20032;-60
2022/06/12 13:11:44;;;;;;;6.15;1.67;;;22.90;72.30;;;;;;5089777;28;20043;-60
2022/06/12 13:14:10;;;;;;;9.98;1.98;;;23.10;71.00;;;;;;5063752;28;20576;-61
2022/06/12 13:17:03;;;;;;;7.65;1.90;;;23.10;70.70;;;;;;5079088;28;20305;-60
2022/06/12 13:19:44;;;;;;;7.15;1.88;;;23.10;71.10;;;;;;5069695;28;20075;-61
2022/06/12 13:22:20;;;;;;;5.70;1.30;;;23.20;71.60;;;;;;5068539;28;20093;-60
2022/06/12 13:24:59;;;;;;;6.30;2.20;;;22.80;70.60;;;;;;5069171;28;20056;-60
2022/06/12 13:27:31;;;;;;;4.63;1.60;;;22.80;70.50;;;;;;5073888;28;20131;-61
2022/06/12 13:29:58;;;;;;;6.80;2.08;;;22.80;69.30;;;;;;5081969;28;20766;-60
2022/06/12 13:32:31;;;;;;;4.72;1.60;;;23.10;70.10;;;;;;5079218;28;20048;-60
2022/06/12 13:35:05;;;;;;;9.43;1.70;;;23.20;69.40;;;;;;5068715;28;20045;-61
2022/06/12 13:37:38;;;;;;;8.27;1.70;;;23.30;70.90;;;;;;5073993;28;20504;-60
2022/06/12 13:40:40;;;;;;;6.35;1.80;;;22.90;68.00;;;;;;5089625;28;20629;-62
2022/06/12 13:43:21;;;;;;;5.97;1.58;;;22.60;68.70;;;;;;5079399;28;20049;-61
2022/06/12 13:45:53;;;;;;;8.55;1.80;;;22.80;67.40;;;;;;5068690;28;20214;-61
2022/06/12 13:48:28;;;;;;;6.80;1.70;;;22.80;68.00;;;;;;5079907;28;20561;-61